PWSweather.com
Personal Weather Stations
Station Observations
PITCARMI1
La Serra, CarmignanoIT 59015

La SerraCarmignanoIT 59015

Lat: 43.804429, Lon: 11.027222

Elevation: 525

Station Type: Davis Vantage Vue

http://www.meteocarmignano.it

High Low Average
Temperature 76.6°F24.8°F 53.2°F11.8°F 65.5°F18.6°F
Dew Point 57.9°F14.4°F 48.4°F9.1°F 52.4°F11.3°F
Winds 10.4 mph WSW16.7 mph WSW Calm Calm 2.3 mph 3.7 mph
Wind Gusts 12.7 mph20.4 mph -- 3.9 mph6.3 mph
Humidity 89% 40% 65%
Pressure 30.02 in1016.60 in 29.92 in1013.20 in -
Precipitation 0.00 in0.00 in - -
Hour Temp Dew Point Humidity Winds Wind Gusts Pressure Precip Precip Rate Daily Precip Total
12:00 AM 59.1°F15.1°C 50.8°F10.4°C 74% Calm Calm 1.2 mph1.9 kmh 30.02 in1016.6 mb - 0.00 in0.0 mm 0.00 in0.0 mm
12:30 AM 58.1°F14.5°C 50.2°F10.1°C 75% Calm Calm 1.2 mph1.9 kmh 30.02 in1016.6 mb - 0.00 in0.0 mm 0.00 in0.0 mm
01:00 AM 56.6°F13.7°C 50.5°F10.3°C 80% Calm Calm -- 30.02 in1016.6 mb - 0.00 in0.0 mm 0.00 in0.0 mm
01:30 AM 55.4°F13.0°C 50.0°F10.0°C 82% Calm Calm -- 30.02 in1016.6 mb - 0.00 in0.0 mm 0.00 in0.0 mm
02:00 AM 55.2°F12.9°C 50.8°F10.4°C 85% Calm Calm -- 30.02 in1016.6 mb - 0.00 in0.0 mm 0.00 in0.0 mm
02:30 AM 54.1°F12.3°C 50.3°F10.2°C 87% Calm Calm 1.2 mph1.9 kmh 30.01 in1016.3 mb - 0.00 in0.0 mm 0.00 in0.0 mm
03:00 AM 54.2°F12.3°C 50.4°F10.2°C 87% Calm Calm -- 30.01 in1016.3 mb - 0.00 in0.0 mm 0.00 in0.0 mm
03:30 AM 53.4°F11.9°C 49.7°F9.8°C 87% Calm Calm -- 30.00 in1015.9 mb - 0.00 in0.0 mm 0.00 in0.0 mm
04:00 AM 53.6°F12.0°C 50.4°F10.2°C 89% Calm Calm -- 30.01 in1016.3 mb - 0.00 in0.0 mm 0.00 in0.0 mm
04:30 AM 53.6°F12.0°C 50.4°F10.2°C 89% Calm Calm -- 30.01 in1016.3 mb - 0.00 in0.0 mm 0.00 in0.0 mm
05:00 AM 53.2°F11.8°C 50.0°F10.0°C 89% Calm Calm -- 30.01 in1016.3 mb - 0.00 in0.0 mm 0.00 in0.0 mm
05:30 AM 55.9°F13.3°C 51.7°F10.9°C 86% Calm Calm 1.2 mph1.9 kmh 30.01 in1016.3 mb - 0.00 in0.0 mm 0.00 in0.0 mm
06:00 AM 57.2°F14.0°C 51.8°F11.0°C 82% Calm Calm 1.2 mph1.9 kmh 30.02 in1016.6 mb - 0.00 in0.0 mm 0.00 in0.0 mm
06:30 AM 58.2°F14.6°C 51.0°F10.6°C 77% Calm Calm -- 30.02 in1016.6 mb - 0.00 in0.0 mm 0.00 in0.0 mm
07:00 AM 59.9°F15.5°C 52.3°F11.3°C 76% Calm Calm 2.3 mph3.7 kmh 30.02 in1016.6 mb - 0.00 in0.0 mm 0.00 in0.0 mm
07:30 AM 60.9°F16.1°C 52.2°F11.2°C 73% 2.3 mph NE3.7 kmh NE 2.3 mph3.7 kmh 30.02 in1016.6 mb - 0.00 in0.0 mm 0.00 in0.0 mm
08:00 AM 63.0°F17.2°C 53.5°F11.9°C 71% Calm Calm 1.2 mph1.9 kmh 30.02 in1016.6 mb - 0.00 in0.0 mm 0.00 in0.0 mm
08:30 AM 64.3°F17.9°C 53.9°F12.2°C 69% Calm Calm 1.2 mph1.9 kmh 30.02 in1016.6 mb - 0.00 in0.0 mm 0.00 in0.0 mm
09:00 AM 65.1°F18.4°C 54.2°F12.3°C 68% Calm Calm 1.2 mph1.9 kmh 30.02 in1016.6 mb - 0.00 in0.0 mm 0.00 in0.0 mm
09:30 AM 69.3°F20.7°C 55.7°F13.2°C 62% Calm Calm 1.2 mph1.9 kmh 30.02 in1016.6 mb - 0.00 in0.0 mm 0.00 in0.0 mm
10:00 AM 70.0°F21.1°C 56.4°F13.6°C 62% 1.2 mph E1.9 kmh E 1.2 mph1.9 kmh 30.02 in1016.6 mb - 0.00 in0.0 mm 0.00 in0.0 mm
10:30 AM 71.6°F22.0°C 57.9°F14.4°C 62% 1.2 mph E1.9 kmh E 3.5 mph5.6 kmh 30.02 in1016.6 mb - 0.00 in0.0 mm 0.00 in0.0 mm
11:00 AM 71.9°F22.2°C 56.4°F13.6°C 58% 3.5 mph NW5.6 kmh NW 5.8 mph9.3 kmh 30.01 in1016.3 mb - 0.00 in0.0 mm 0.00 in0.0 mm
11:30 AM 73.0°F22.8°C 56.9°F13.8°C 57% 1.2 mph NW1.9 kmh NW 5.8 mph9.3 kmh 30.00 in1015.9 mb - 0.00 in0.0 mm 0.00 in0.0 mm
12:00 PM 73.0°F22.8°C 51.6°F10.9°C 47% 8.1 mph WSW13.0 kmh WSW 9.2 mph14.8 kmh 30.00 in1015.9 mb - 0.00 in0.0 mm 0.00 in0.0 mm
12:30 PM 73.5°F23.1°C 55.3°F12.9°C 53% 5.8 mph SW9.3 kmh SW 8.1 mph13.0 kmh 29.99 in1015.6 mb - 0.00 in0.0 mm 0.00 in0.0 mm
01:00 PM 74.1°F23.4°C 54.8°F12.7°C 51% 9.2 mph SW14.8 kmh SW 11.5 mph18.5 kmh 29.99 in1015.6 mb - 0.00 in0.0 mm 0.00 in0.0 mm
01:30 PM 75.2°F24.0°C 55.3°F12.9°C 50% 6.9 mph SW11.1 kmh SW 11.5 mph18.5 kmh 29.98 in1015.2 mb - 0.00 in0.0 mm 0.00 in0.0 mm
02:00 PM 75.7°F24.3°C 55.7°F13.2°C 50% 5.8 mph SW9.3 kmh SW 10.4 mph16.7 kmh 29.97 in1014.9 mb - 0.00 in0.0 mm 0.00 in0.0 mm
02:30 PM 75.1°F23.9°C 55.2°F12.9°C 50% 4.6 mph SW7.4 kmh SW 6.9 mph11.1 kmh 29.96 in1014.6 mb - 0.00 in0.0 mm 0.00 in0.0 mm
03:00 PM 76.6°F24.8°C 57.1°F13.9°C 51% 8.1 mph SW13.0 kmh SW 12.7 mph20.4 kmh 29.95 in1014.2 mb - 0.00 in0.0 mm 0.00 in0.0 mm
03:30 PM 76.1°F24.5°C 55.0°F12.8°C 48% 5.8 mph WSW9.3 kmh WSW 11.5 mph18.5 kmh 29.94 in1013.9 mb - 0.00 in0.0 mm 0.00 in0.0 mm
04:00 PM 76.1°F24.5°C 54.4°F12.4°C 47% 5.8 mph WNW9.3 kmh WNW 9.2 mph14.8 kmh 29.94 in1013.9 mb - 0.00 in0.0 mm 0.00 in0.0 mm
04:30 PM 75.9°F24.4°C 53.6°F12.0°C 46% 5.8 mph WSW9.3 kmh WSW 11.5 mph18.5 kmh 29.93 in1013.5 mb - 0.00 in0.0 mm 0.00 in0.0 mm
05:00 PM 75.3°F24.1°C 50.0°F10.0°C 41% 8.1 mph WSW13.0 kmh WSW 10.4 mph16.7 kmh 29.92 in1013.2 mb - 0.00 in0.0 mm 0.00 in0.0 mm
05:30 PM 74.3°F23.5°C 48.4°F9.1°C 40% 10.4 mph WSW16.7 kmh WSW 12.7 mph20.4 kmh 29.92 in1013.2 mb - 0.00 in0.0 mm 0.00 in0.0 mm
06:00 PM 73.6°F23.1°C 52.1°F11.2°C 47% 6.9 mph SW11.1 kmh SW 8.1 mph13.0 kmh 29.92 in1013.2 mb - 0.00 in0.0 mm 0.00 in0.0 mm
06:30 PM 73.4°F23.0°C 52.5°F11.4°C 48% 2.3 mph WSW3.7 kmh WSW 3.5 mph5.6 kmh 29.93 in1013.5 mb - 0.00 in0.0 mm 0.00 in0.0 mm
07:00 PM 73.3°F22.9°C 52.4°F11.3°C 48% 1.2 mph WSW1.9 kmh WSW 2.3 mph3.7 kmh 29.93 in1013.5 mb - 0.00 in0.0 mm 0.00 in0.0 mm
07:30 PM 69.4°F20.8°C 51.5°F10.8°C 53% Calm Calm 1.2 mph1.9 kmh 29.94 in1013.9 mb - 0.00 in0.0 mm 0.00 in0.0 mm
08:00 PM 67.6°F19.8°C 50.8°F10.4°C 55% 1.2 mph WSW1.9 kmh WSW 3.5 mph5.6 kmh 29.94 in1013.9 mb - 0.00 in0.0 mm 0.00 in0.0 mm
08:30 PM 65.4°F18.6°C 51.2°F10.7°C 60% Calm Calm 2.3 mph3.7 kmh 29.95 in1014.2 mb - 0.00 in0.0 mm 0.00 in0.0 mm
09:00 PM 64.3°F17.9°C 50.6°F10.3°C 61% Calm Calm 1.2 mph1.9 kmh 29.96 in1014.6 mb - 0.00 in0.0 mm 0.00 in0.0 mm
09:30 PM 63.0°F17.2°C 50.6°F10.3°C 64% 1.2 mph SW1.9 kmh SW 1.2 mph1.9 kmh 29.97 in1014.9 mb - 0.00 in0.0 mm 0.00 in0.0 mm
10:00 PM 62.4°F16.9°C 50.5°F10.3°C 65% 1.2 mph W1.9 kmh W 1.2 mph1.9 kmh 29.96 in1014.6 mb - 0.00 in0.0 mm 0.00 in0.0 mm
10:30 PM 62.4°F16.9°C 49.6°F9.8°C 63% 1.2 mph SW1.9 kmh SW 1.2 mph1.9 kmh 29.96 in1014.6 mb - 0.00 in0.0 mm 0.00 in0.0 mm
11:00 PM 59.3°F15.2°C 49.9°F9.9°C 71% 1.2 mph SW1.9 kmh SW 3.5 mph5.6 kmh 29.97 in1014.9 mb - 0.00 in0.0 mm 0.00 in0.0 mm
11:30 PM 59.9°F15.5°C 49.3°F9.6°C 68% Calm Calm 2.3 mph3.7 kmh 29.96 in1014.6 mb - 0.00 in0.0 mm 0.00 in0.0 mm